Benalla, Australia
Current Conditions -  °F | °C
As of 9:00 PM on Sunday 21 Dec 2014 (Local Time) from YMAY Reporting Station
Clear Clear  
Wind Chill: 81°   Ceiling: Unl
Heat Index: 81°   Visibility: 6mi
Dew Point: 52°   Wind: 6mph
Humidity: 37%   Direction: 140°SE
Pressure: 29.88"   Gusts: NA
Location:  36.55°S, 145.99°E
Report Text: YMAY 211000Z AUTO 14005KT 090V170 9999 // NCD 27/11 Q1012
Loading
Personal Weather Stations






























Interactive Weather Map New forecast layout! Learn more

10-Day Weather Forecast

Advertisements
Track Severe Weather on mobile